Time;durP1;ratioP1;P1;durP2;ratioP2;P2;SDS_P1;SDS_P2;PMS_P1;PMS_P2;Temp;Humidity;BMP_temperature;BMP_pressure;BME280_temperature;BME280_humidity;BME280_pressure;Samples;Min_cycle;Max_cycle;Signal;HPM_P1;HPM_P2
2021/10/15 00:02:10;;;;;;;9.93;8.47;;;9.70;99.90;;;;;;5094496;28;20223;-68
2021/10/15 00:04:38;;;;;;;8.37;7.57;;;9.70;99.90;;;;;;5093942;28;20683;-68
2021/10/15 00:07:06;;;;;;;10.17;8.60;;;9.60;99.90;;;;;;5094244;28;20204;-68
2021/10/15 00:09:34;;;;;;;9.47;8.43;;;9.60;99.90;;;;;;5093958;28;20196;-67
2021/10/15 00:12:02;;;;;;;10.60;8.30;;;9.50;99.90;;;;;;5094111;28;20267;-67
2021/10/15 00:14:30;;;;;;;8.83;7.77;;;9.50;99.90;;;;;;5093614;28;20679;-68
2021/10/15 00:16:59;;;;;;;8.63;7.60;;;9.40;99.90;;;;;;5093629;28;20239;-68
2021/10/15 00:19:27;;;;;;;10.87;8.03;;;9.40;99.90;;;;;;5094186;28;20567;-66
2021/10/15 00:21:55;;;;;;;9.53;7.77;;;9.30;99.90;;;;;;5093843;28;20287;-67
2021/10/15 00:24:23;;;;;;;9.57;8.23;;;9.30;99.90;;;;;;5093733;28;20283;-67
2021/10/15 00:26:51;;;;;;;9.47;8.13;;;9.30;99.90;;;;;;5093830;28;20228;-68
2021/10/15 00:29:19;;;;;;;9.23;8.27;;;9.20;99.90;;;;;;5093360;28;20295;-69
2021/10/15 00:31:47;;;;;;;9.37;8.07;;;9.20;99.90;;;;;;5093743;28;20204;-67
2021/10/15 00:34:16;;;;;;;9.40;7.97;;;9.20;99.90;;;;;;5093687;28;20729;-66
2021/10/15 00:36:44;;;;;;;9.23;8.00;;;9.20;99.90;;;;;;5093727;28;20230;-66
2021/10/15 00:39:11;;;;;;;9.57;8.00;;;9.10;99.90;;;;;;5093178;28;20689;-66
2021/10/15 00:41:39;;;;;;;10.50;8.83;;;9.10;99.90;;;;;;5093511;28;20206;-66
2021/10/15 00:44:09;;;;;;;9.47;8.30;;;9.10;99.90;;;;;;5093361;28;20303;-67
2021/10/15 00:46:38;;;;;;;10.10;8.73;;;9.00;99.90;;;;;;5093332;28;20291;-66
2021/10/15 00:49:08;;;;;;;10.17;8.37;;;9.00;99.90;;;;;;5093399;28;20287;-67
2021/10/15 00:51:38;;;;;;;10.17;8.90;;;9.00;99.90;;;;;;5093320;28;20272;-67
2021/10/15 00:54:06;;;;;;;10.90;9.07;;;9.00;99.90;;;;;;5092756;28;20675;-67
2021/10/15 00:56:34;;;;;;;11.17;8.70;;;9.00;99.90;;;;;;5092838;28;20572;-68
2021/10/15 00:59:02;;;;;;;10.43;8.40;;;9.00;99.90;;;;;;5093271;28;20196;-67
2021/10/15 01:01:30;;;;;;;10.50;8.93;;;9.00;99.90;;;;;;5093040;28;20544;-67
2021/10/15 01:03:59;;;;;;;11.00;9.20;;;9.00;99.90;;;;;;5092832;28;20224;-67
2021/10/15 01:06:28;;;;;;;9.93;8.33;;;9.00;99.90;;;;;;5092716;28;20204;-65
2021/10/15 01:08:58;;;;;;;11.23;9.10;;;9.00;99.90;;;;;;5092453;28;20707;-67
2021/10/15 01:11:26;;;;;;;11.13;8.80;;;9.30;99.90;;;;;;5092094;28;20327;-67
2021/10/15 01:13:55;;;;;;;12.30;8.47;;;9.20;99.90;;;;;;5092943;28;20200;-67
2021/10/15 01:16:25;;;;;;;10.67;8.40;;;9.20;99.90;;;;;;5092556;28;20208;-67
2021/10/15 01:18:55;;;;;;;11.20;8.40;;;9.40;99.90;;;;;;5092968;28;20278;-67
2021/10/15 01:21:25;;;;;;;10.40;8.47;;;9.50;99.90;;;;;;5092737;28;20286;-67
2021/10/15 01:23:53;;;;;;;12.47;8.00;;;9.50;99.90;;;;;;5092307;28;20220;-67
2021/10/15 01:26:21;;;;;;;10.17;8.20;;;9.70;99.90;;;;;;5092583;28;20282;-66
2021/10/15 01:28:51;;;;;;;9.17;7.70;;;9.80;99.90;;;;;;5092558;28;20298;-67
2021/10/15 01:31:19;;;;;;;10.70;7.80;;;9.80;99.90;;;;;;5092176;28;20560;-67
2021/10/15 01:33:47;;;;;;;10.73;7.80;;;9.90;99.90;;;;;;5092435;28;20543;-67
2021/10/15 01:36:15;;;;;;;7.50;6.63;;;10.00;99.90;;;;;;5092569;28;20321;-66
2021/10/15 01:38:44;;;;;;;8.20;7.33;;;10.10;99.90;;;;;;5092324;28;20223;-67
2021/10/15 01:41:12;;;;;;;8.43;6.97;;;10.20;99.90;;;;;;5092111;28;20295;-67
2021/10/15 01:43:40;;;;;;;8.17;7.07;;;10.10;99.90;;;;;;5091957;28;20226;-67
2021/10/15 01:46:08;;;;;;;8.40;7.40;;;10.20;99.90;;;;;;5092108;28;20271;-67
2021/10/15 01:48:36;;;;;;;7.50;6.73;;;10.30;99.90;;;;;;5092196;28;20343;-67
2021/10/15 01:51:04;;;;;;;7.47;6.63;;;10.30;99.90;;;;;;5092012;28;20624;-66
2021/10/15 01:53:32;;;;;;;8.00;7.20;;;10.40;99.90;;;;;;5092136;28;20200;-66
2021/10/15 01:56:01;;;;;;;9.00;7.00;;;10.40;99.90;;;;;;5092258;28;20215;-67
2021/10/15 01:58:29;;;;;;;7.60;6.80;;;10.40;99.90;;;;;;5091941;28;20210;-66
2021/10/15 02:00:57;;;;;;;7.60;5.70;;;10.50;99.90;;;;;;5092141;28;20295;-67
2021/10/15 02:03:25;;;;;;;6.77;6.03;;;10.50;99.90;;;;;;5091732;28;20703;-67
2021/10/15 02:05:53;;;;;;;7.03;5.80;;;10.50;99.90;;;;;;5092052;28;20290;-68
2021/10/15 02:08:21;;;;;;;9.10;6.60;;;10.60;99.90;;;;;;5091972;28;20299;-67
2021/10/15 02:10:49;;;;;;;6.33;5.73;;;10.60;99.90;;;;;;5091732;28;20320;-68
2021/10/15 02:13:18;;;;;;;7.00;6.30;;;10.60;99.90;;;;;;5092006;28;20214;-68
2021/10/15 02:15:46;;;;;;;8.17;6.83;;;10.60;99.90;;;;;;5091700;28;20235;-68
2021/10/15 02:18:14;;;;;;;7.07;5.90;;;10.70;99.90;;;;;;5092006;28;20270;-67
2021/10/15 02:20:42;;;;;;;8.20;6.47;;;10.70;99.90;;;;;;5091575;28;20663;-67
2021/10/15 02:23:10;;;;;;;7.37;6.20;;;10.70;99.90;;;;;;5093773;28;20226;-67
2021/10/15 02:25:38;;;;;;;6.20;5.60;;;10.70;99.90;;;;;;5095859;28;20204;-67
2021/10/15 02:28:06;;;;;;;6.90;6.20;;;10.70;99.90;;;;;;5095706;28;20664;-67
2021/10/15 02:30:35;;;;;;;6.40;5.80;;;10.80;99.90;;;;;;5095821;28;20558;-68
2021/10/15 02:33:03;;;;;;;6.20;5.60;;;10.80;99.90;;;;;;5095989;28;20287;-67
2021/10/15 02:35:31;;;;;;;7.07;5.63;;;10.80;99.90;;;;;;5095860;28;20290;-67
2021/10/15 02:38:00;;;;;;;7.00;5.90;;;10.80;99.90;;;;;;5095831;28;20600;-68
2021/10/15 02:40:29;;;;;;;6.90;6.20;;;10.80;99.90;;;;;;5095600;28;20204;-67
2021/10/15 02:42:57;;;;;;;5.90;5.30;;;10.70;99.90;;;;;;5095634;28;20617;-67
2021/10/15 02:45:25;;;;;;;6.20;5.60;;;10.70;99.90;;;;;;5095507;28;20235;-67
2021/10/15 02:47:54;;;;;;;7.07;5.40;;;10.80;99.90;;;;;;5095615;28;20291;-67
2021/10/15 02:50:22;;;;;;;7.13;5.63;;;10.80;99.90;;;;;;5095580;28;20298;-67
2021/10/15 02:52:50;;;;;;;6.13;5.00;;;10.80;99.90;;;;;;5095502;28;20287;-66
2021/10/15 02:55:17;;;;;;;7.33;5.10;;;10.90;99.90;;;;;;5095309;28;20568;-68
2021/10/15 02:57:45;;;;;;;6.23;5.37;;;10.90;99.90;;;;;;5095528;28;20295;-66
2021/10/15 03:00:14;;;;;;;5.43;4.93;;;11.00;99.90;;;;;;5095297;28;20210;-67
2021/10/15 03:02:42;;;;;;;6.20;5.30;;;10.90;99.90;;;;;;5095367;28;20210;-67
2021/10/15 03:05:11;;;;;;;5.83;5.20;;;11.00;99.90;;;;;;5094913;28;20711;-67
2021/10/15 03:07:39;;;;;;;5.33;4.80;;;10.90;99.90;;;;;;5095184;28;20615;-67
2021/10/15 03:10:08;;;;;;;5.80;5.00;;;11.00;99.90;;;;;;5094924;28;20293;-67
2021/10/15 03:12:37;;;;;;;6.40;5.80;;;11.00;99.90;;;;;;5094927;28;20638;-66
2021/10/15 03:15:07;;;;;;;6.93;5.00;;;11.00;99.90;;;;;;5094896;28;20220;-67
2021/10/15 03:17:35;;;;;;;7.07;5.40;;;11.00;99.90;;;;;;5095090;28;20232;-68
2021/10/15 03:20:04;;;;;;;5.97;5.37;;;11.10;99.90;;;;;;5094996;28;20295;-66
2021/10/15 03:22:33;;;;;;;5.80;4.73;;;11.10;99.90;;;;;;5094683;28;20203;-67
2021/10/15 03:25:01;;;;;;;7.70;5.17;;;11.10;99.90;;;;;;5094776;28;20226;-67
2021/10/15 03:27:29;;;;;;;6.57;5.20;;;11.10;99.90;;;;;;5094637;28;20200;-67
2021/10/15 03:29:56;;;;;;;6.37;5.00;;;11.10;99.90;;;;;;5094532;28;20204;-67
2021/10/15 03:32:24;;;;;;;5.67;5.00;;;11.10;99.90;;;;;;5094669;28;20208;-67
2021/10/15 03:34:52;;;;;;;8.57;4.50;;;11.20;99.90;;;;;;5094209;28;20204;-67
2021/10/15 03:37:20;;;;;;;6.70;4.80;;;11.20;99.90;;;;;;5094477;28;20299;-67
2021/10/15 03:39:49;;;;;;;5.03;4.63;;;11.20;99.90;;;;;;5094485;28;20286;-67
2021/10/15 03:42:17;;;;;;;5.73;4.50;;;11.20;99.90;;;;;;5094617;28;20200;-67
2021/10/15 03:44:45;;;;;;;5.20;4.70;;;11.20;99.90;;;;;;5094698;28;20226;-66
2021/10/15 03:47:13;;;;;;;5.70;4.87;;;11.20;99.90;;;;;;5094145;28;20686;-67
2021/10/15 03:49:41;;;;;;;5.77;4.57;;;11.30;99.90;;;;;;5094146;28;20736;-66
2021/10/15 03:52:09;;;;;;;4.57;4.07;;;11.30;99.90;;;;;;5094506;28;20287;-67
2021/10/15 03:54:37;;;;;;;4.60;4.20;;;11.30;99.90;;;;;;5093965;28;20196;-66
2021/10/15 03:57:06;;;;;;;4.80;4.37;;;11.30;99.90;;;;;;5094293;28;20208;-67
2021/10/15 03:59:34;;;;;;;4.63;4.23;;;11.30;99.90;;;;;;5094451;28;20203;-67
2021/10/15 04:02:02;;;;;;;4.73;4.27;;;11.40;99.90;;;;;;5094331;28;20208;-67
2021/10/15 04:04:30;;;;;;;5.90;4.77;;;11.40;99.90;;;;;;5094230;28;20310;-67
2021/10/15 04:06:58;;;;;;;6.57;4.23;;;11.40;99.90;;;;;;5093886;28;20203;-66
2021/10/15 04:09:26;;;;;;;6.37;4.20;;;11.40;99.90;;;;;;5093919;28;20574;-67
2021/10/15 04:11:55;;;;;;;4.90;4.40;;;11.30;99.90;;;;;;5093814;28;20327;-66
2021/10/15 04:14:25;;;;;;;5.57;4.73;;;11.40;99.90;;;;;;5093628;28;20695;-67
2021/10/15 04:16:53;;;;;;;4.87;4.47;;;11.40;99.90;;;;;;5094006;28;20204;-67
2021/10/15 04:19:21;;;;;;;4.80;4.40;;;11.40;99.90;;;;;;5094097;28;20253;-67
2021/10/15 04:21:48;;;;;;;4.97;4.20;;;11.30;99.90;;;;;;5093585;28;20196;-67
2021/10/15 04:24:17;;;;;;;5.27;4.77;;;11.30;99.90;;;;;;5093570;28;20309;-67
2021/10/15 04:26:45;;;;;;;4.77;4.27;;;11.30;99.90;;;;;;5093712;28;20299;-66
2021/10/15 04:29:13;;;;;;;8.37;4.70;;;11.30;99.90;;;;;;5093596;28;20235;-67
2021/10/15 04:31:42;;;;;;;5.73;4.70;;;11.20;99.90;;;;;;5093328;28;20637;-67
2021/10/15 04:34:10;;;;;;;5.10;4.70;;;11.30;99.90;;;;;;5093557;28;20299;-67
2021/10/15 04:36:38;;;;;;;7.10;4.60;;;11.30;99.90;;;;;;5093626;28;20212;-67
2021/10/15 04:39:05;;;;;;;6.37;4.90;;;11.20;99.90;;;;;;5093261;28;20210;-67
2021/10/15 04:41:33;;;;;;;5.70;4.97;;;11.30;99.90;;;;;;5093343;28;20742;-67
2021/10/15 04:44:01;;;;;;;7.03;4.90;;;11.40;99.90;;;;;;5093350;28;20203;-67
2021/10/15 04:46:29;;;;;;;7.20;5.90;;;11.40;99.90;;;;;;5092231;28;20255;-66
2021/10/15 04:48:58;;;;;;;6.17;4.63;;;11.40;99.90;;;;;;5093017;28;20714;-66
2021/10/15 04:51:27;;;;;;;8.03;6.20;;;11.40;99.90;;;;;;5093418;28;20294;-67
2021/10/15 04:53:54;;;;;;;5.87;5.37;;;11.30;99.90;;;;;;5093407;28;20214;-66
2021/10/15 04:56:22;;;;;;;6.53;5.17;;;11.40;99.90;;;;;;5092842;28;20672;-66
2021/10/15 04:58:50;;;;;;;6.73;5.67;;;11.40;99.90;;;;;;5093061;28;20327;-67
2021/10/15 05:01:18;;;;;;;5.60;5.10;;;11.40;99.90;;;;;;5092763;28;20311;-66
2021/10/15 05:03:46;;;;;;;6.30;5.50;;;11.40;99.90;;;;;;5092605;28;20670;-67
2021/10/15 05:06:15;;;;;;;6.40;5.80;;;11.40;99.90;;;;;;5092858;28;20314;-67
2021/10/15 05:08:59;;;;;;;6.47;5.80;;;11.40;99.90;;;;;;5092670;28;20264;-67
2021/10/15 05:11:27;;;;;;;6.07;5.47;;;11.40;99.90;;;;;;5092298;28;20238;-67
2021/10/15 05:13:55;;;;;;;7.53;5.30;;;11.40;99.90;;;;;;5092802;28;20616;-67
2021/10/15 05:16:24;;;;;;;9.43;5.30;;;11.40;99.90;;;;;;5092292;28;20766;-67
2021/10/15 05:18:52;;;;;;;7.57;5.43;;;11.40;99.90;;;;;;5092488;28;20562;-67
2021/10/15 05:21:21;;;;;;;7.20;5.10;;;11.40;99.90;;;;;;5092947;28;20287;-66
2021/10/15 05:23:49;;;;;;;6.20;5.60;;;11.50;99.90;;;;;;5092620;28;20290;-67
2021/10/15 05:26:16;;;;;;;6.17;5.63;;;11.50;99.90;;;;;;5092606;28;20651;-66
2021/10/15 05:28:45;;;;;;;6.10;5.40;;;11.50;99.90;;;;;;5092842;28;20195;-66
2021/10/15 05:31:13;;;;;;;7.00;5.90;;;11.40;99.90;;;;;;5092571;28;20296;-64
2021/10/15 05:33:41;;;;;;;7.33;5.73;;;11.50;99.90;;;;;;5092841;28;20211;-65
2021/10/15 05:36:09;;;;;;;7.77;6.27;;;11.50;99.90;;;;;;5092163;28;20306;-64
2021/10/15 05:38:38;;;;;;;8.87;5.50;;;11.50;99.90;;;;;;5092461;28;20287;-64
2021/10/15 05:41:06;;;;;;;7.80;5.67;;;11.50;99.90;;;;;;5092122;28;20195;-64
2021/10/15 05:43:33;;;;;;;7.77;6.30;;;11.50;99.90;;;;;;5092303;28;20207;-64
2021/10/15 05:46:02;;;;;;;6.67;5.80;;;11.60;99.90;;;;;;5092022;28;20232;-65
2021/10/15 05:48:30;;;;;;;7.27;5.50;;;11.60;99.90;;;;;;5091949;28;20207;-64
2021/10/15 05:50:57;;;;;;;8.60;5.33;;;11.60;99.90;;;;;;5091901;28;20199;-65
2021/10/15 05:53:26;;;;;;;5.67;5.00;;;11.60;99.90;;;;;;5091992;28;20233;-65
2021/10/15 05:56:21;;;;;;;6.03;5.43;;;11.60;99.90;;;;;;5091568;28;20263;-65
2021/10/15 05:58:52;;;;;;;6.47;5.47;;;11.70;99.90;;;;;;5092162;28;20272;-64
2021/10/15 06:01:22;;;;;;;9.77;6.07;;;11.60;99.90;;;;;;5092015;28;20184;-65
2021/10/15 06:03:58;;;;;;;9.17;5.77;;;11.60;99.90;;;;;;5092067;28;20207;-66
2021/10/15 06:14:40;;;;;;;8.60;5.60;;;11.60;99.90;;;;;;5091992;28;20231;-64
2021/10/15 06:17:10;;;;;;;8.23;6.17;;;11.70;99.90;;;;;;5091756;28;20208;-64
2021/10/15 06:19:45;;;;;;;8.23;5.90;;;11.70;99.90;;;;;;5091479;28;20195;-65
2021/10/15 06:22:13;;;;;;;7.77;6.40;;;11.70;99.90;;;;;;5092083;28;20187;-65
2021/10/15 06:24:41;;;;;;;8.00;6.47;;;11.70;99.90;;;;;;5092219;28;20210;-65
2021/10/15 06:27:10;;;;;;;8.80;6.83;;;11.70;99.90;;;;;;5091665;28;20222;-64
2021/10/15 06:29:38;;;;;;;8.17;5.60;;;11.70;99.90;;;;;;5091745;28;20287;-64
2021/10/15 06:32:08;;;;;;;6.73;6.03;;;11.70;99.90;;;;;;5091266;28;20196;-64
2021/10/15 06:34:36;;;;;;;11.13;6.73;;;11.80;99.90;;;;;;5091677;28;20278;-64
2021/10/15 06:37:04;;;;;;;7.40;6.27;;;11.90;99.90;;;;;;5091673;28;20287;-65
2021/10/15 06:39:31;;;;;;;8.67;6.43;;;11.90;99.90;;;;;;5091430;28;20291;-65
2021/10/15 06:41:59;;;;;;;7.83;6.33;;;12.00;99.90;;;;;;5091657;28;20206;-64
2021/10/15 06:44:28;;;;;;;9.97;6.90;;;12.10;99.90;;;;;;5091512;28;20738;-64
2021/10/15 06:46:56;;;;;;;8.60;6.67;;;12.00;99.90;;;;;;5091633;28;20212;-64
2021/10/15 06:49:24;;;;;;;9.00;6.77;;;12.10;99.90;;;;;;5091641;28;20614;-65
2021/10/15 06:51:52;;;;;;;8.60;6.47;;;12.10;99.90;;;;;;5091562;28;20275;-65
2021/10/15 06:54:20;;;;;;;7.07;6.33;;;12.10;99.90;;;;;;5091334;28;20238;-65
2021/10/15 06:56:48;;;;;;;10.47;6.83;;;12.20;99.90;;;;;;5091238;28;20228;-64
2021/10/15 06:59:16;;;;;;;6.93;6.13;;;12.10;99.90;;;;;;5091202;28;20286;-64
2021/10/15 07:01:45;;;;;;;8.40;6.67;;;12.10;99.90;;;;;;5091465;28;20201;-64
2021/10/15 07:04:13;;;;;;;9.03;6.20;;;12.10;99.90;;;;;;5091217;28;20188;-64
2021/10/15 07:06:41;;;;;;;8.23;6.30;;;12.00;99.90;;;;;;5091393;28;20248;-64
2021/10/15 07:09:09;;;;;;;7.33;6.33;;;12.00;99.90;;;;;;5092917;28;20238;-63
2021/10/15 07:11:38;;;;;;;8.57;6.27;;;12.00;99.90;;;;;;5094814;28;20231;-63
2021/10/15 07:14:06;;;;;;;8.93;6.80;;;11.90;99.90;;;;;;5095018;28;20203;-64
2021/10/15 07:16:34;;;;;;;10.87;6.60;;;11.90;99.90;;;;;;5094981;28;20232;-64
2021/10/15 07:19:04;;;;;;;9.73;6.23;;;11.90;99.90;;;;;;5094818;28;20204;-64
2021/10/15 07:21:31;;;;;;;7.77;5.90;;;12.00;99.90;;;;;;5095035;28;20226;-62
2021/10/15 07:23:59;;;;;;;9.23;5.90;;;12.00;99.90;;;;;;5094594;28;20667;-63
2021/10/15 07:26:27;;;;;;;7.47;5.93;;;12.00;99.90;;;;;;5094872;28;20233;-64
2021/10/15 07:28:55;;;;;;;11.47;6.17;;;12.10;99.90;;;;;;5094642;28;20299;-64
2021/10/15 07:31:23;;;;;;;8.63;6.00;;;12.10;99.90;;;;;;5094678;28;20279;-63
2021/10/15 07:33:51;;;;;;;6.50;5.83;;;12.10;99.90;;;;;;5095141;28;20231;-62
2021/10/15 07:36:20;;;;;;;6.47;5.57;;;12.20;99.90;;;;;;5094738;28;20226;-63
2021/10/15 07:38:48;;;;;;;6.03;5.40;;;12.20;99.90;;;;;;5094761;28;20207;-63
2021/10/15 07:41:18;;;;;;;6.20;5.23;;;12.20;99.90;;;;;;5094471;28;20210;-64
2021/10/15 07:43:50;;;;;;;7.57;5.83;;;12.20;99.90;;;;;;5094894;28;20218;-64
2021/10/15 07:46:18;;;;;;;7.93;5.30;;;12.30;99.90;;;;;;5094287;28;20239;-63
2021/10/15 07:48:46;;;;;;;6.67;5.90;;;12.50;99.90;;;;;;5094428;28;20231;-64
2021/10/15 07:51:14;;;;;;;7.40;5.60;;;12.70;99.90;;;;;;5094312;28;20291;-64
2021/10/15 07:53:43;;;;;;;6.47;5.43;;;12.80;99.90;;;;;;5094383;28;20258;-63
2021/10/15 07:56:11;;;;;;;7.10;5.43;;;13.00;99.90;;;;;;5094089;28;20204;-63
2021/10/15 07:58:40;;;;;;;6.27;5.20;;;13.00;99.90;;;;;;5094158;28;20234;-64
2021/10/15 08:01:07;;;;;;;7.00;5.10;;;13.10;99.90;;;;;;5093989;28;20204;-63
2021/10/15 08:03:36;;;;;;;7.40;4.67;;;13.30;99.90;;;;;;5093782;28;20204;-65
2021/10/15 08:06:04;;;;;;;5.43;4.50;;;13.40;99.90;;;;;;5093678;28;20287;-64
2021/10/15 08:08:31;;;;;;;8.50;5.20;;;13.50;99.90;;;;;;5093875;28;20204;-63
2021/10/15 08:11:01;;;;;;;6.60;4.60;;;13.50;99.90;;;;;;5093417;28;20327;-64
2021/10/15 08:13:29;;;;;;;5.30;4.57;;;13.50;99.90;;;;;;5093673;28;20664;-63
2021/10/15 08:15:57;;;;;;;5.20;4.43;;;13.50;99.90;;;;;;5093418;28;20301;-63
2021/10/15 08:18:25;;;;;;;4.68;3.88;;;13.40;99.90;;;;;;5094822;28;20310;-64
2021/10/15 08:20:57;;;;;;;7.38;4.10;;;13.50;99.90;;;;;;5093867;28;20224;-65
2021/10/15 08:23:26;;;;;;;4.05;3.63;;;13.60;99.90;;;;;;5093641;28;20227;-64
2021/10/15 08:25:55;;;;;;;4.30;3.55;;;13.60;99.90;;;;;;5093588;28;20687;-64
2021/10/15 08:28:25;;;;;;;3.30;3.00;;;13.80;99.90;;;;;;5093554;28;20248;-65
2021/10/15 08:31:10;;;;;;;5.05;3.08;;;13.80;99.90;;;;;;5092079;28;20303;-66
2021/10/15 08:33:39;;;;;;;4.47;3.30;;;13.90;99.90;;;;;;5090176;28;20200;-65
2021/10/15 08:36:06;;;;;;;3.57;3.00;;;13.90;99.90;;;;;;5090000;28;20192;-66
2021/10/15 08:38:34;;;;;;;3.05;2.75;;;13.80;99.90;;;;;;5090362;28;20572;-65
2021/10/15 08:41:02;;;;;;;3.28;2.80;;;13.70;99.90;;;;;;5090081;28;20196;-65
2021/10/15 08:43:36;;;;;;;2.95;2.70;;;13.80;99.90;;;;;;5090068;28;20287;-65
2021/10/15 08:46:06;;;;;;;3.60;3.00;;;13.80;99.90;;;;;;5090018;28;20196;-65
2021/10/15 08:48:39;;;;;;;3.53;3.10;;;13.80;99.90;;;;;;5089842;28;20208;-61
2021/10/15 08:51:08;;;;;;;3.70;2.60;;;13.60;99.90;;;;;;5089465;28;20242;-63
2021/10/15 08:53:45;;;;;;;3.28;2.90;;;13.60;99.90;;;;;;5089938;28;20232;-67
2021/10/15 08:56:15;;;;;;;4.23;2.90;;;13.50;99.90;;;;;;5091025;28;20186;-59
2021/10/15 08:58:45;;;;;;;4.53;2.88;;;13.60;99.90;;;;;;5090889;28;20183;-61
2021/10/15 09:01:13;;;;;;;3.92;3.53;;;13.80;99.90;;;;;;5090828;28;20204;-69
2021/10/15 09:03:42;;;;;;;4.30;3.78;;;14.00;99.90;;;;;;5090937;28;20230;-68
2021/10/15 09:06:12;;;;;;;3.88;3.13;;;14.20;99.90;;;;;;5090803;28;20291;-69
2021/10/15 09:08:49;;;;;;;4.70;3.17;;;14.20;99.90;;;;;;5090496;28;20228;-69
2021/10/15 09:11:31;;;;;;;4.03;3.03;;;14.30;99.90;;;;;;5090375;28;20274;-70
2021/10/15 09:14:16;;;;;;;4.22;3.30;;;14.40;99.90;;;;;;5090297;28;20219;-70
2021/10/15 09:17:02;;;;;;;4.50;3.30;;;14.40;99.90;;;;;;5090404;28;20275;-69
2021/10/15 09:19:33;;;;;;;4.30;2.95;;;14.20;99.90;;;;;;5090668;28;20180;-66
2021/10/15 09:22:14;;;;;;;4.35;3.13;;;14.30;99.90;;;;;;5090522;28;21107;-66
2021/10/15 09:24:45;;;;;;;6.53;3.65;;;14.20;99.90;;;;;;5090602;28;20275;-71
2021/10/15 09:27:29;;;;;;;3.75;3.10;;;14.10;99.90;;;;;;5090943;28;20335;-70
2021/10/15 09:30:00;;;;;;;3.08;2.78;;;14.10;99.90;;;;;;5090308;28;20231;-68
2021/10/15 09:32:32;;;;;;;4.18;2.80;;;14.10;99.90;;;;;;5089517;28;20187;-71
2021/10/15 09:35:01;;;;;;;5.88;4.00;;;14.00;99.90;;;;;;5090093;28;20212;-65
2021/10/15 09:37:31;;;;;;;5.35;3.22;;;14.10;99.90;;;;;;5089705;28;20232;-66
2021/10/15 09:40:08;;;;;;;3.95;3.20;;;14.10;99.90;;;;;;5089643;28;20234;-65
2021/10/15 09:42:39;;;;;;;4.18;3.33;;;14.10;99.90;;;;;;5090164;28;20274;-65
2021/10/15 09:45:15;;;;;;;4.03;2.97;;;14.20;99.90;;;;;;5089576;28;20311;-64
2021/10/15 09:47:44;;;;;;;4.50;3.25;;;14.20;99.90;;;;;;5089539;28;20870;-65
2021/10/15 09:50:14;;;;;;;3.72;3.33;;;14.00;99.90;;;;;;5089660;28;20758;-65
2021/10/15 09:52:44;;;;;;;4.18;3.42;;;13.90;99.90;;;;;;5089918;28;20638;-69
2021/10/15 09:55:21;;;;;;;3.10;2.83;;;13.90;99.90;;;;;;5089407;28;20189;-67
2021/10/15 09:57:51;;;;;;;3.92;2.95;;;13.90;99.90;;;;;;5090001;28;20267;-73
2021/10/15 10:00:27;;;;;;;5.40;3.20;;;14.00;99.90;;;;;;5089929;28;20188;-61
2021/10/15 10:02:55;;;;;;;4.47;2.90;;;14.00;99.90;;;;;;5089365;28;20203;-60
2021/10/15 10:05:23;;;;;;;4.75;3.17;;;14.10;99.90;;;;;;5089810;28;20208;-60
2021/10/15 10:07:53;;;;;;;3.72;2.50;;;14.30;99.90;;;;;;5089049;28;20683;-60
2021/10/15 10:10:22;;;;;;;2.80;2.53;;;14.40;99.90;;;;;;5089326;28;20314;-64
2021/10/15 10:12:52;;;;;;;4.00;2.40;;;14.30;99.90;;;;;;5089559;28;20206;-64
2021/10/15 10:15:23;;;;;;;6.45;2.80;;;14.30;99.90;;;;;;5089307;28;20218;-63
2021/10/15 10:17:56;;;;;;;3.95;2.75;;;14.20;99.90;;;;;;5089211;28;20208;-70
2021/10/15 10:20:27;;;;;;;3.00;2.70;;;14.10;99.90;;;;;;5089634;28;20199;-67
2021/10/15 10:23:04;;;;;;;3.13;2.40;;;14.20;99.90;;;;;;5089313;28;20200;-69
2021/10/15 10:25:33;;;;;;;2.30;2.10;;;14.30;99.90;;;;;;5089306;28;20271;-67
2021/10/15 10:28:12;;;;;;;3.22;2.22;;;14.30;99.90;;;;;;5088974;28;20266;-67
2021/10/15 10:30:44;;;;;;;3.90;2.72;;;14.40;99.90;;;;;;5089515;28;20188;-68
2021/10/15 10:33:12;;;;;;;3.92;2.33;;;14.40;99.90;;;;;;5088879;28;20184;-68
2021/10/15 10:35:42;;;;;;;3.50;2.17;;;14.50;99.90;;;;;;5089205;28;20208;-68
2021/10/15 10:38:32;;;;;;;2.78;2.15;;;14.50;99.90;;;;;;5088858;28;20181;-68
2021/10/15 10:41:30;;;;;;;4.75;2.08;;;14.70;99.90;;;;;;5088736;28;20232;-67
2021/10/15 10:44:13;;;;;;;3.70;2.13;;;14.80;99.90;;;;;;5090751;28;20188;-68
2021/10/15 10:47:03;;;;;;;5.10;2.58;;;14.80;99.90;;;;;;5092865;28;20598;-68
2021/10/15 10:49:31;;;;;;;3.20;2.60;;;14.90;99.90;;;;;;5093070;28;20295;-74
2021/10/15 10:52:18;;;;;;;4.20;1.95;;;14.80;99.90;;;;;;5093602;28;20267;-75
2021/10/15 10:54:48;;;;;;;3.67;2.30;;;14.80;99.90;;;;;;5093195;28;20184;-71
2021/10/15 10:57:19;;;;;;;3.67;2.80;;;14.60;99.90;;;;;;5093081;28;20279;-66
2021/10/15 10:59:47;;;;;;;3.53;2.58;;;14.70;99.90;;;;;;5092799;28;20634;-64
2021/10/15 11:02:19;;;;;;;4.78;2.75;;;14.60;99.90;;;;;;5092785;28;20291;-64
2021/10/15 11:04:52;;;;;;;4.72;2.90;;;14.60;99.90;;;;;;5092607;28;20518;-63
2021/10/15 11:07:28;;;;;;;6.07;2.88;;;14.70;99.90;;;;;;5093072;28;20629;-64
2021/10/15 11:10:00;;;;;;;2.75;2.47;;;14.60;99.90;;;;;;5092407;28;20638;-65
2021/10/15 11:12:58;;;;;;;2.72;2.50;;;14.60;99.90;;;;;;5092818;28;20195;-61
2021/10/15 11:15:30;;;;;;;4.47;3.03;;;14.60;99.90;;;;;;5092478;28;20616;-63
2021/10/15 11:18:00;;;;;;;6.63;3.22;;;14.70;99.90;;;;;;5092354;28;20279;-62
2021/10/15 11:20:31;;;;;;;4.63;3.25;;;14.80;99.90;;;;;;5092412;28;20200;-61
2021/10/15 11:23:01;;;;;;;3.40;2.80;;;14.70;99.90;;;;;;5092609;28;20271;-65
2021/10/15 11:25:32;;;;;;;4.00;3.50;;;14.60;99.90;;;;;;5092034;28;20713;-64
2021/10/15 11:28:03;;;;;;;4.28;3.45;;;14.60;99.90;;;;;;5092186;28;20636;-63
2021/10/15 11:30:33;;;;;;;6.15;3.92;;;14.20;99.90;;;;;;5092460;28;20188;-63
2021/10/15 11:33:05;;;;;;;6.90;3.88;;;14.00;99.90;;;;;;5092296;28;20279;-63
2021/10/15 11:35:35;;;;;;;7.25;3.75;;;14.00;99.90;;;;;;5092536;28;20335;-64
2021/10/15 11:38:05;;;;;;;5.82;4.00;;;13.80;99.90;;;;;;5092110;28;20287;-65
2021/10/15 11:40:36;;;;;;;5.88;4.13;;;13.60;99.90;;;;;;5092009;28;20215;-67
2021/10/15 11:43:24;;;;;;;5.82;3.85;;;13.60;99.90;;;;;;5092024;28;20191;-65
2021/10/15 11:45:55;;;;;;;5.63;3.88;;;13.50;99.90;;;;;;5091796;28;20604;-65
2021/10/15 11:48:29;;;;;;;5.25;4.10;;;13.40;99.90;;;;;;5091439;28;20684;-66
2021/10/15 11:50:59;;;;;;;5.00;3.75;;;13.30;99.90;;;;;;5091859;28;20522;-65
2021/10/15 11:53:28;;;;;;;4.47;3.80;;;13.30;99.90;;;;;;5091826;28;20235;-65
2021/10/15 11:55:57;;;;;;;4.80;4.07;;;13.30;99.90;;;;;;5092354;28;20249;-65
2021/10/15 11:58:31;;;;;;;5.73;4.10;;;13.20;99.90;;;;;;5091885;28;20279;-65
2021/10/15 12:01:05;;;;;;;6.28;4.43;;;13.10;99.90;;;;;;5091423;28;20185;-64
2021/10/15 12:03:36;;;;;;;7.10;4.47;;;13.10;99.90;;;;;;5090623;28;20702;-65
2021/10/15 12:06:15;;;;;;;4.90;4.30;;;13.20;99.90;;;;;;5091336;28;20188;-65
2021/10/15 12:08:45;;;;;;;4.78;4.28;;;13.20;99.90;;;;;;5091270;28;20790;-64
2021/10/15 12:11:17;;;;;;;6.45;4.78;;;13.20;99.90;;;;;;5091070;28;20722;-64
2021/10/15 12:13:46;;;;;;;5.07;4.15;;;13.20;99.90;;;;;;5091653;28;20190;-63
2021/10/15 12:16:22;;;;;;;5.15;4.65;;;13.30;99.90;;;;;;5091300;28;20239;-64
2021/10/15 12:18:59;;;;;;;4.97;4.35;;;13.20;99.90;;;;;;5091549;28;20290;-64
2021/10/15 12:21:39;;;;;;;8.65;5.65;;;13.20;99.90;;;;;;5091097;28;20293;-65
2021/10/15 12:24:09;;;;;;;15.03;9.07;;;13.20;99.90;;;;;;5091187;28;20227;-67
2021/10/15 12:26:37;;;;;;;9.60;6.55;;;13.20;99.90;;;;;;5091099;28;20204;-63
2021/10/15 12:29:05;;;;;;;5.87;5.17;;;13.20;99.90;;;;;;5090814;28;20774;-63
2021/10/15 12:31:41;;;;;;;7.25;5.18;;;13.10;99.90;;;;;;5090556;28;20212;-65
2021/10/15 12:34:14;;;;;;;5.95;5.25;;;13.10;99.90;;;;;;5091213;28;20231;-64
2021/10/15 12:36:42;;;;;;;6.90;5.22;;;13.00;99.90;;;;;;5090889;28;20710;-64
2021/10/15 12:39:31;;;;;;;6.73;5.33;;;13.00;99.90;;;;;;5090682;28;20607;-63
2021/10/15 12:41:59;;;;;;;5.33;4.83;;;13.10;99.90;;;;;;5084624;28;20287;-64
2021/10/15 12:44:30;;;;;;;6.68;5.35;;;13.20;99.90;;;;;;5090925;28;20239;-64
2021/10/15 12:47:00;;;;;;;6.00;5.00;;;13.20;99.90;;;;;;5090735;28;20284;-64
2021/10/15 12:49:32;;;;;;;6.00;4.30;;;13.20;99.90;;;;;;5090340;28;20299;-64
2021/10/15 12:52:00;;;;;;;6.18;4.60;;;13.20;99.90;;;;;;5090527;28;20219;-65
2021/10/15 12:54:45;;;;;;;6.00;5.40;;;13.20;99.90;;;;;;5090437;28;20203;-63
2021/10/15 12:57:15;;;;;;;3.90;3.50;;;13.20;99.90;;;;;;5090317;28;20282;-65
2021/10/15 13:00:01;;;;;;;2.03;1.43;;;13.00;99.90;;;;;;5090793;28;20235;-65
2021/10/15 13:02:30;;;;;;;3.25;1.15;;;12.50;99.90;;;;;;5090393;28;20188;-65
2021/10/15 13:05:00;;;;;;;2.13;1.30;;;12.00;99.90;;;;;;5090339;28;20286;-64
2021/10/15 13:07:29;;;;;;;1.27;0.80;;;11.60;99.90;;;;;;5089765;28;20291;-65
2021/10/15 13:09:57;;;;;;;1.83;1.00;;;11.40;99.90;;;;;;5089907;28;20267;-64
2021/10/15 13:12:26;;;;;;;1.30;0.70;;;11.20;99.90;;;;;;5090575;28;20206;-65